sensor_id;sensor_type;location;lat;lon;timestamp;temperature;humidity
68801;SHT31;55784;50.734;7.086;2022-10-16T00:00:34;14.78;91.17
68801;SHT31;55784;50.734;7.086;2022-10-16T00:03:00;14.89;90.85
68801;SHT31;55784;50.734;7.086;2022-10-16T00:05:26;14.84;90.81
68801;SHT31;55784;50.734;7.086;2022-10-16T00:07:51;14.84;90.83
68801;SHT31;55784;50.734;7.086;2022-10-16T00:10:16;14.84;90.69
68801;SHT31;55784;50.734;7.086;2022-10-16T00:12:42;14.84;90.72
68801;SHT31;55784;50.734;7.086;2022-10-16T00:15:07;14.78;90.87
68801;SHT31;55784;50.734;7.086;2022-10-16T00:17:33;14.74;90.98
68801;SHT31;55784;50.734;7.086;2022-10-16T00:19:58;14.67;91.13
68801;SHT31;55784;50.734;7.086;2022-10-16T00:22:24;14.63;91.33
68801;SHT31;55784;50.734;7.086;2022-10-16T00:24:49;14.59;91.58
68801;SHT31;55784;50.734;7.086;2022-10-16T00:27:14;14.56;91.69
68801;SHT31;55784;50.734;7.086;2022-10-16T00:29:40;14.53;91.61
68801;SHT31;55784;50.734;7.086;2022-10-16T00:32:05;14.48;91.63
68801;SHT31;55784;50.734;7.086;2022-10-16T00:34:30;14.48;91.73
68801;SHT31;55784;50.734;7.086;2022-10-16T00:36:56;14.43;91.76
68801;SHT31;55784;50.734;7.086;2022-10-16T00:39:21;14.41;91.81
68801;SHT31;55784;50.734;7.086;2022-10-16T00:41:47;14.38;91.86
68801;SHT31;55784;50.734;7.086;2022-10-16T00:44:45;14.37;91.94
68801;SHT31;55784;50.734;7.086;2022-10-16T00:47:18;14.33;92.08
68801;SHT31;55784;50.734;7.086;2022-10-16T00:49:44;14.30;92.12
68801;SHT31;55784;50.734;7.086;2022-10-16T00:52:10;14.29;92.22
68801;SHT31;55784;50.734;7.086;2022-10-16T00:54:35;14.29;92.45
68801;SHT31;55784;50.734;7.086;2022-10-16T00:57:03;14.27;92.51
68801;SHT31;55784;50.734;7.086;2022-10-16T00:59:33;14.26;92.52
68801;SHT31;55784;50.734;7.086;2022-10-16T01:01:59;14.23;92.66
68801;SHT31;55784;50.734;7.086;2022-10-16T01:04:26;14.21;92.77
68801;SHT31;55784;50.734;7.086;2022-10-16T01:07:10;14.17;92.76
68801;SHT31;55784;50.734;7.086;2022-10-16T01:15:32;14.09;93.14
68801;SHT31;55784;50.734;7.086;2022-10-16T01:20:35;14.03;93.22
68801;SHT31;55784;50.734;7.086;2022-10-16T01:23:19;14.03;93.18
68801;SHT31;55784;50.734;7.086;2022-10-16T01:25:49;13.98;93.22
68801;SHT31;55784;50.734;7.086;2022-10-16T01:28:19;13.92;93.49
68801;SHT31;55784;50.734;7.086;2022-10-16T01:30:47;13.92;93.56
68801;SHT31;55784;50.734;7.086;2022-10-16T01:33:22;13.89;93.71
68801;SHT31;55784;50.734;7.086;2022-10-16T01:35:54;13.86;93.86
68801;SHT31;55784;50.734;7.086;2022-10-16T01:38:30;13.79;94.05
68801;SHT31;55784;50.734;7.086;2022-10-16T01:41:03;13.79;94.09
68801;SHT31;55784;50.734;7.086;2022-10-16T01:43:37;13.78;94.42
68801;SHT31;55784;50.734;7.086;2022-10-16T01:46:03;13.72;94.34
68801;SHT31;55784;50.734;7.086;2022-10-16T01:48:31;13.63;94.29
68801;SHT31;55784;50.734;7.086;2022-10-16T01:51:10;13.58;94.61
68801;SHT31;55784;50.734;7.086;2022-10-16T01:53:37;13.59;94.88
68801;SHT31;55784;50.734;7.086;2022-10-16T01:56:06;13.62;94.94
68801;SHT31;55784;50.734;7.086;2022-10-16T01:58:36;13.62;95.11
68801;SHT31;55784;50.734;7.086;2022-10-16T02:01:04;13.65;95.17
68801;SHT31;55784;50.734;7.086;2022-10-16T02:03:33;13.69;95.18
68801;SHT31;55784;50.734;7.086;2022-10-16T02:05:59;13.78;95.14
68801;SHT31;55784;50.734;7.086;2022-10-16T02:08:27;13.83;94.77
68801;SHT31;55784;50.734;7.086;2022-10-16T02:10:55;13.90;94.31
68801;SHT31;55784;50.734;7.086;2022-10-16T02:13:31;13.99;93.88
68801;SHT31;55784;50.734;7.086;2022-10-16T02:15:57;14.02;93.66
68801;SHT31;55784;50.734;7.086;2022-10-16T02:18:23;14.14;93.24
68801;SHT31;55784;50.734;7.086;2022-10-16T02:20:59;14.20;92.66
68801;SHT31;55784;50.734;7.086;2022-10-16T02:24:02;14.33;91.92
68801;SHT31;55784;50.734;7.086;2022-10-16T02:26:36;14.36;91.50
68801;SHT31;55784;50.734;7.086;2022-10-16T02:29:07;14.44;91.13
68801;SHT31;55784;50.734;7.086;2022-10-16T02:31:35;14.48;90.64
68801;SHT31;55784;50.734;7.086;2022-10-16T02:34:04;14.53;90.51
68801;SHT31;55784;50.734;7.086;2022-10-16T02:36:32;14.57;90.08
68801;SHT31;55784;50.734;7.086;2022-10-16T02:38:59;14.57;90.17
68801;SHT31;55784;50.734;7.086;2022-10-16T02:41:26;14.59;89.95
68801;SHT31;55784;50.734;7.086;2022-10-16T02:43:52;14.61;89.80
68801;SHT31;55784;50.734;7.086;2022-10-16T02:46:18;14.70;89.58
68801;SHT31;55784;50.734;7.086;2022-10-16T02:48:43;14.72;89.47
68801;SHT31;55784;50.734;7.086;2022-10-16T02:51:09;14.75;89.59
68801;SHT31;55784;50.734;7.086;2022-10-16T02:53:34;14.71;89.65
68801;SHT31;55784;50.734;7.086;2022-10-16T02:55:59;14.68;89.72
68801;SHT31;55784;50.734;7.086;2022-10-16T02:58:25;14.70;90.01
68801;SHT31;55784;50.734;7.086;2022-10-16T03:00:50;14.67;90.13
68801;SHT31;55784;50.734;7.086;2022-10-16T03:03:15;14.67;89.95
68801;SHT31;55784;50.734;7.086;2022-10-16T03:05:43;14.71;89.65
68801;SHT31;55784;50.734;7.086;2022-10-16T03:08:10;14.71;89.53
68801;SHT31;55784;50.734;7.086;2022-10-16T03:10:36;14.71;89.29
68801;SHT31;55784;50.734;7.086;2022-10-16T03:13:01;14.74;89.04
68801;SHT31;55784;50.734;7.086;2022-10-16T03:15:26;14.80;89.02
68801;SHT31;55784;50.734;7.086;2022-10-16T03:17:53;14.82;88.50
68801;SHT31;55784;50.734;7.086;2022-10-16T03:20:18;14.82;88.45
68801;SHT31;55784;50.734;7.086;2022-10-16T03:22:43;14.80;87.85
68801;SHT31;55784;50.734;7.086;2022-10-16T03:25:09;14.82;88.06
68801;SHT31;55784;50.734;7.086;2022-10-16T03:27:34;14.84;88.25
68801;SHT31;55784;50.734;7.086;2022-10-16T03:29:59;14.85;87.84
68801;SHT31;55784;50.734;7.086;2022-10-16T03:32:25;14.88;87.34
68801;SHT31;55784;50.734;7.086;2022-10-16T03:34:50;14.91;87.46
68801;SHT31;55784;50.734;7.086;2022-10-16T03:37:15;14.89;87.40
68801;SHT31;55784;50.734;7.086;2022-10-16T03:39:41;14.89;87.19
68801;SHT31;55784;50.734;7.086;2022-10-16T03:42:06;14.85;87.43
68801;SHT31;55784;50.734;7.086;2022-10-16T03:44:31;14.84;87.60
68801;SHT31;55784;50.734;7.086;2022-10-16T03:46:57;14.91;86.97
68801;SHT31;55784;50.734;7.086;2022-10-16T03:49:22;14.91;87.26
68801;SHT31;55784;50.734;7.086;2022-10-16T03:51:47;14.92;87.19
68801;SHT31;55784;50.734;7.086;2022-10-16T03:54:13;14.87;87.67
68801;SHT31;55784;50.734;7.086;2022-10-16T03:56:38;14.84;87.66
68801;SHT31;55784;50.734;7.086;2022-10-16T03:59:03;14.85;87.30
68801;SHT31;55784;50.734;7.086;2022-10-16T04:01:29;14.85;87.15
68801;SHT31;55784;50.734;7.086;2022-10-16T04:03:54;14.91;86.83
68801;SHT31;55784;50.734;7.086;2022-10-16T04:06:19;14.89;86.65
68801;SHT31;55784;50.734;7.086;2022-10-16T04:08:45;14.92;86.36
68801;SHT31;55784;50.734;7.086;2022-10-16T04:11:10;14.91;86.65
68801;SHT31;55784;50.734;7.086;2022-10-16T04:13:36;14.91;86.88
68801;SHT31;55784;50.734;7.086;2022-10-16T04:16:01;14.87;87.39
68801;SHT31;55784;50.734;7.086;2022-10-16T04:18:27;14.88;87.37
68801;SHT31;55784;50.734;7.086;2022-10-16T04:20:53;14.89;87.32
68801;SHT31;55784;50.734;7.086;2022-10-16T04:23:19;14.92;87.36
68801;SHT31;55784;50.734;7.086;2022-10-16T04:25:44;14.96;87.16
68801;SHT31;55784;50.734;7.086;2022-10-16T04:28:09;14.95;87.18
68801;SHT31;55784;50.734;7.086;2022-10-16T04:30:37;14.92;87.14
68801;SHT31;55784;50.734;7.086;2022-10-16T04:33:03;14.94;87.25
68801;SHT31;55784;50.734;7.086;2022-10-16T04:35:28;14.92;87.25
68801;SHT31;55784;50.734;7.086;2022-10-16T04:37:53;14.92;87.34
68801;SHT31;55784;50.734;7.086;2022-10-16T04:40:19;14.89;87.55
68801;SHT31;55784;50.734;7.086;2022-10-16T04:42:44;14.91;87.49
68801;SHT31;55784;50.734;7.086;2022-10-16T04:45:09;14.85;87.67
68801;SHT31;55784;50.734;7.086;2022-10-16T04:47:35;14.84;87.89
68801;SHT31;55784;50.734;7.086;2022-10-16T04:50:00;14.82;88.23
68801;SHT31;55784;50.734;7.086;2022-10-16T04:52:27;14.80;88.52
68801;SHT31;55784;50.734;7.086;2022-10-16T04:54:53;14.78;88.75
68801;SHT31;55784;50.734;7.086;2022-10-16T04:57:19;14.75;89.07
68801;SHT31;55784;50.734;7.086;2022-10-16T04:59:44;14.77;89.12
68801;SHT31;55784;50.734;7.086;2022-10-16T05:02:10;14.72;89.33
68801;SHT31;55784;50.734;7.086;2022-10-16T05:04:35;14.65;89.61
68801;SHT31;55784;50.734;7.086;2022-10-16T05:07:00;14.65;90.08
68801;SHT31;55784;50.734;7.086;2022-10-16T05:09:26;14.60;90.35
68801;SHT31;55784;50.734;7.086;2022-10-16T05:11:51;14.60;90.42
68801;SHT31;55784;50.734;7.086;2022-10-16T05:14:16;14.60;90.55
68801;SHT31;55784;50.734;7.086;2022-10-16T05:16:42;14.57;90.62
68801;SHT31;55784;50.734;7.086;2022-10-16T05:19:07;14.56;91.00
68801;SHT31;55784;50.734;7.086;2022-10-16T05:21:32;14.53;91.04
68801;SHT31;55784;50.734;7.086;2022-10-16T05:23:58;14.53;91.18
68801;SHT31;55784;50.734;7.086;2022-10-16T05:26:23;14.53;91.15
68801;SHT31;55784;50.734;7.086;2022-10-16T05:28:49;14.43;91.30
68801;SHT31;55784;50.734;7.086;2022-10-16T05:31:14;14.44;91.45
68801;SHT31;55784;50.734;7.086;2022-10-16T05:33:40;14.44;91.44
68801;SHT31;55784;50.734;7.086;2022-10-16T05:36:07;14.41;91.56
68801;SHT31;55784;50.734;7.086;2022-10-16T05:38:36;14.40;91.51
68801;SHT31;55784;50.734;7.086;2022-10-16T05:41:03;14.48;91.31
68801;SHT31;55784;50.734;7.086;2022-10-16T05:43:30;14.45;91.34
68801;SHT31;55784;50.734;7.086;2022-10-16T05:46:04;14.47;91.39
68801;SHT31;55784;50.734;7.086;2022-10-16T05:48:31;14.43;91.39
68801;SHT31;55784;50.734;7.086;2022-10-16T05:51:08;14.43;91.50
68801;SHT31;55784;50.734;7.086;2022-10-16T05:53:35;14.44;91.38
68801;SHT31;55784;50.734;7.086;2022-10-16T05:56:01;14.44;91.41
68801;SHT31;55784;50.734;7.086;2022-10-16T05:58:34;14.45;91.39
68801;SHT31;55784;50.734;7.086;2022-10-16T06:01:06;14.51;91.44
68801;SHT31;55784;50.734;7.086;2022-10-16T06:03:32;14.51;91.43
68801;SHT31;55784;50.734;7.086;2022-10-16T06:05:58;14.50;91.51
68801;SHT31;55784;50.734;7.086;2022-10-16T06:08:23;14.50;91.47
68801;SHT31;55784;50.734;7.086;2022-10-16T06:11:00;14.50;91.66
68801;SHT31;55784;50.734;7.086;2022-10-16T06:13:25;14.51;91.69
68801;SHT31;55784;50.734;7.086;2022-10-16T06:15:50;14.51;91.72
68801;SHT31;55784;50.734;7.086;2022-10-16T06:18:16;14.48;91.69
68801;SHT31;55784;50.734;7.086;2022-10-16T06:20:41;14.48;91.79
68801;SHT31;55784;50.734;7.086;2022-10-16T06:23:09;14.47;91.89
68801;SHT31;55784;50.734;7.086;2022-10-16T06:25:34;14.45;92.23
68801;SHT31;55784;50.734;7.086;2022-10-16T06:27:59;14.44;92.32
68801;SHT31;55784;50.734;7.086;2022-10-16T06:30:25;14.47;92.44
68801;SHT31;55784;50.734;7.086;2022-10-16T06:32:50;14.44;92.51
68801;SHT31;55784;50.734;7.086;2022-10-16T06:35:16;14.47;92.58
68801;SHT31;55784;50.734;7.086;2022-10-16T06:37:41;14.45;92.59
68801;SHT31;55784;50.734;7.086;2022-10-16T06:40:06;14.50;92.66
68801;SHT31;55784;50.734;7.086;2022-10-16T06:42:32;14.53;92.73
68801;SHT31;55784;50.734;7.086;2022-10-16T06:44:57;14.57;92.77
68801;SHT31;55784;50.734;7.086;2022-10-16T06:47:22;14.57;92.74
68801;SHT31;55784;50.734;7.086;2022-10-16T06:49:48;14.59;92.71
68801;SHT31;55784;50.734;7.086;2022-10-16T06:52:13;14.68;92.65
68801;SHT31;55784;50.734;7.086;2022-10-16T06:54:39;14.77;92.40
68801;SHT31;55784;50.734;7.086;2022-10-16T06:57:04;14.81;92.34
68801;SHT31;55784;50.734;7.086;2022-10-16T06:59:29;14.88;92.12
68801;SHT31;55784;50.734;7.086;2022-10-16T07:01:55;14.92;91.99
68801;SHT31;55784;50.734;7.086;2022-10-16T07:04:20;14.99;91.80
68801;SHT31;55784;50.734;7.086;2022-10-16T07:06:45;14.98;91.75
68801;SHT31;55784;50.734;7.086;2022-10-16T07:09:11;15.01;91.64
68801;SHT31;55784;50.734;7.086;2022-10-16T07:11:38;14.98;91.61
68801;SHT31;55784;50.734;7.086;2022-10-16T07:14:04;14.94;91.67
68801;SHT31;55784;50.734;7.086;2022-10-16T07:16:31;14.96;91.78
68801;SHT31;55784;50.734;7.086;2022-10-16T07:18:58;15.04;91.90
68801;SHT31;55784;50.734;7.086;2022-10-16T07:21:25;15.14;91.76
68801;SHT31;55784;50.734;7.086;2022-10-16T07:23:56;15.19;91.58
68801;SHT31;55784;50.734;7.086;2022-10-16T07:26:23;15.29;91.20
68801;SHT31;55784;50.734;7.086;2022-10-16T07:28:49;15.32;91.00
68801;SHT31;55784;50.734;7.086;2022-10-16T07:31:16;15.36;90.84
68801;SHT31;55784;50.734;7.086;2022-10-16T07:33:42;15.38;90.74
68801;SHT31;55784;50.734;7.086;2022-10-16T07:36:10;15.42;90.64
68801;SHT31;55784;50.734;7.086;2022-10-16T07:38:35;15.46;90.47
68801;SHT31;55784;50.734;7.086;2022-10-16T07:41:04;15.47;90.45
68801;SHT31;55784;50.734;7.086;2022-10-16T07:43:30;15.52;90.35
68801;SHT31;55784;50.734;7.086;2022-10-16T07:45:56;15.53;90.27
68801;SHT31;55784;50.734;7.086;2022-10-16T07:48:22;15.53;90.29
68801;SHT31;55784;50.734;7.086;2022-10-16T07:50:48;15.50;90.36
68801;SHT31;55784;50.734;7.086;2022-10-16T07:53:17;15.46;90.40
68801;SHT31;55784;50.734;7.086;2022-10-16T07:55:45;15.46;90.49
68801;SHT31;55784;50.734;7.086;2022-10-16T07:58:10;15.49;90.54
68801;SHT31;55784;50.734;7.086;2022-10-16T08:00:37;15.52;90.53
68801;SHT31;55784;50.734;7.086;2022-10-16T08:03:02;15.47;90.40
68801;SHT31;55784;50.734;7.086;2022-10-16T08:05:29;15.45;90.48
68801;SHT31;55784;50.734;7.086;2022-10-16T08:07:55;15.46;90.45
68801;SHT31;55784;50.734;7.086;2022-10-16T08:10:26;15.40;90.53
68801;SHT31;55784;50.734;7.086;2022-10-16T08:12:52;15.39;90.48
68801;SHT31;55784;50.734;7.086;2022-10-16T08:23:03;15.33;90.95
68801;SHT31;55784;50.734;7.086;2022-10-16T08:30:44;15.52;90.44
68801;SHT31;55784;50.734;7.086;2022-10-16T08:34:45;15.57;90.10
68801;SHT31;55784;50.734;7.086;2022-10-16T08:37:21;15.55;90.16
68801;SHT31;55784;50.734;7.086;2022-10-16T08:39:59;15.70;89.79
68801;SHT31;55784;50.734;7.086;2022-10-16T08:42:37;15.80;89.50
68801;SHT31;55784;50.734;7.086;2022-10-16T08:45:23;15.82;89.59
68801;SHT31;55784;50.734;7.086;2022-10-16T08:50:42;15.87;88.96
68801;SHT31;55784;50.734;7.086;2022-10-16T08:53:16;15.90;88.69
68801;SHT31;55784;50.734;7.086;2022-10-16T09:00:57;15.97;87.75
68801;SHT31;55784;50.734;7.086;2022-10-16T09:06:58;16.17;85.97
68801;SHT31;55784;50.734;7.086;2022-10-16T09:16:19;17.05;83.19
68801;SHT31;55784;50.734;7.086;2022-10-16T09:30:34;17.32;79.44
68801;SHT31;55784;50.734;7.086;2022-10-16T09:45:27;17.73;78.29
68801;SHT31;55784;50.734;7.086;2022-10-16T10:02:56;18.21;73.42
68801;SHT31;55784;50.734;7.086;2022-10-16T10:05:29;18.36;72.76
68801;SHT31;55784;50.734;7.086;2022-10-16T10:08:51;18.32;71.03
68801;SHT31;55784;50.734;7.086;2022-10-16T10:11:45;18.41;71.63
68801;SHT31;55784;50.734;7.086;2022-10-16T10:24:34;18.83;68.32
68801;SHT31;55784;50.734;7.086;2022-10-16T10:58:34;19.99;63.91
68801;SHT31;55784;50.734;7.086;2022-10-16T11:01:46;20.12;63.51
68801;SHT31;55784;50.734;7.086;2022-10-16T11:08:02;19.92;63.97
68801;SHT31;55784;50.734;7.086;2022-10-16T11:45:41;20.76;62.13
68801;SHT31;55784;50.734;7.086;2022-10-16T11:52:43;20.64;62.72
68801;SHT31;55784;50.734;7.086;2022-10-16T11:55:16;20.67;63.17
68801;SHT31;55784;50.734;7.086;2022-10-16T12:06:25;21.18;63.04
68801;SHT31;55784;50.734;7.086;2022-10-16T12:08:54;21.30;62.88
68801;SHT31;55784;50.734;7.086;2022-10-16T12:17:39;21.45;60.00
68801;SHT31;55784;50.734;7.086;2022-10-16T12:20:01;21.41;59.23
68801;SHT31;55784;50.734;7.086;2022-10-16T12:22:29;21.44;60.35
68801;SHT31;55784;50.734;7.086;2022-10-16T12:24:56;21.49;59.75
68801;SHT31;55784;50.734;7.086;2022-10-16T12:27:31;21.61;60.55
68801;SHT31;55784;50.734;7.086;2022-10-16T12:30:02;21.74;60.54
68801;SHT31;55784;50.734;7.086;2022-10-16T12:32:36;21.89;60.88
68801;SHT31;55784;50.734;7.086;2022-10-16T12:35:04;21.98;60.23
68801;SHT31;55784;50.734;7.086;2022-10-16T12:37:35;22.08;60.07
68801;SHT31;55784;50.734;7.086;2022-10-16T12:40:16;22.06;59.72
68801;SHT31;55784;50.734;7.086;2022-10-16T12:42:48;22.06;59.73
68801;SHT31;55784;50.734;7.086;2022-10-16T12:45:33;21.92;60.33
68801;SHT31;55784;50.734;7.086;2022-10-16T12:48:01;22.05;60.50
68801;SHT31;55784;50.734;7.086;2022-10-16T12:50:36;22.14;60.89
68801;SHT31;55784;50.734;7.086;2022-10-16T12:53:16;22.43;60.76
68801;SHT31;55784;50.734;7.086;2022-10-16T13:01:28;22.77;58.81
68801;SHT31;55784;50.734;7.086;2022-10-16T13:04:18;22.87;58.77
68801;SHT31;55784;50.734;7.086;2022-10-16T13:07:14;22.86;59.27
68801;SHT31;55784;50.734;7.086;2022-10-16T13:09:58;22.90;59.37
68801;SHT31;55784;50.734;7.086;2022-10-16T13:12:39;22.70;59.27
68801;SHT31;55784;50.734;7.086;2022-10-16T13:15:41;22.77;59.53
68801;SHT31;55784;50.734;7.086;2022-10-16T13:23:54;22.43;60.60
68801;SHT31;55784;50.734;7.086;2022-10-16T13:29:01;22.33;60.13
68801;SHT31;55784;50.734;7.086;2022-10-16T13:31:28;22.35;60.49
68801;SHT31;55784;50.734;7.086;2022-10-16T13:33:57;22.14;60.31
68801;SHT31;55784;50.734;7.086;2022-10-16T13:36:45;22.28;61.05
68801;SHT31;55784;50.734;7.086;2022-10-16T13:39:40;22.17;60.84
68801;SHT31;55784;50.734;7.086;2022-10-16T13:42:25;22.17;61.52
68801;SHT31;55784;50.734;7.086;2022-10-16T13:48:12;22.10;61.44
68801;SHT31;55784;50.734;7.086;2022-10-16T13:51:11;22.20;61.36
68801;SHT31;55784;50.734;7.086;2022-10-16T13:54:12;22.36;60.89
68801;SHT31;55784;50.734;7.086;2022-10-16T13:57:26;22.44;60.59
68801;SHT31;55784;50.734;7.086;2022-10-16T14:00:01;22.70;60.58
68801;SHT31;55784;50.734;7.086;2022-10-16T14:02:40;22.59;59.84
68801;SHT31;55784;50.734;7.086;2022-10-16T14:05:35;22.43;60.28
68801;SHT31;55784;50.734;7.086;2022-10-16T14:25:47;22.23;61.83
68801;SHT31;55784;50.734;7.086;2022-10-16T14:31:35;22.05;62.71
68801;SHT31;55784;50.734;7.086;2022-10-16T14:48:03;21.78;64.20
68801;SHT31;55784;50.734;7.086;2022-10-16T14:51:16;21.68;65.58
68801;SHT31;55784;50.734;7.086;2022-10-16T15:01:13;21.31;67.68
68801;SHT31;55784;50.734;7.086;2022-10-16T15:04:09;21.24;68.27
68801;SHT31;55784;50.734;7.086;2022-10-16T15:12:24;21.11;69.26
68801;SHT31;55784;50.734;7.086;2022-10-16T15:18:25;20.88;69.99
68801;SHT31;55784;50.734;7.086;2022-10-16T15:31:00;20.50;71.62
68801;SHT31;55784;50.734;7.086;2022-10-16T15:33:27;20.43;71.93
68801;SHT31;55784;50.734;7.086;2022-10-16T15:35:55;20.33;72.24
68801;SHT31;55784;50.734;7.086;2022-10-16T15:38:21;20.26;72.41
68801;SHT31;55784;50.734;7.086;2022-10-16T15:40:47;20.21;72.66
68801;SHT31;55784;50.734;7.086;2022-10-16T15:43:13;20.13;72.90
68801;SHT31;55784;50.734;7.086;2022-10-16T15:45:38;20.09;73.09
68801;SHT31;55784;50.734;7.086;2022-10-16T15:48:04;20.05;73.30
68801;SHT31;55784;50.734;7.086;2022-10-16T15:50:33;20.04;73.46
68801;SHT31;55784;50.734;7.086;2022-10-16T15:52:59;19.95;73.59
68801;SHT31;55784;50.734;7.086;2022-10-16T15:55:29;19.91;73.89
68801;SHT31;55784;50.734;7.086;2022-10-16T15:57:58;19.88;74.03
68801;SHT31;55784;50.734;7.086;2022-10-16T16:00:23;19.81;74.35
68801;SHT31;55784;50.734;7.086;2022-10-16T16:02:52;19.77;74.64
68801;SHT31;55784;50.734;7.086;2022-10-16T16:05:21;19.74;74.91
68801;SHT31;55784;50.734;7.086;2022-10-16T16:07:47;19.70;74.96
68801;SHT31;55784;50.734;7.086;2022-10-16T16:10:13;19.65;75.28
68801;SHT31;55784;50.734;7.086;2022-10-16T16:12:46;19.60;75.59
68801;SHT31;55784;50.734;7.086;2022-10-16T16:15:16;19.55;75.90
68801;SHT31;55784;50.734;7.086;2022-10-16T16:17:42;19.53;75.96
68801;SHT31;55784;50.734;7.086;2022-10-16T16:20:09;19.48;76.19
68801;SHT31;55784;50.734;7.086;2022-10-16T16:22:35;19.47;76.44
68801;SHT31;55784;50.734;7.086;2022-10-16T16:25:00;19.44;76.63
68801;SHT31;55784;50.734;7.086;2022-10-16T16:27:25;19.44;76.86
68801;SHT31;55784;50.734;7.086;2022-10-16T16:29:51;19.35;77.23
68801;SHT31;55784;50.734;7.086;2022-10-16T16:32:16;19.34;77.38
68801;SHT31;55784;50.734;7.086;2022-10-16T16:34:42;19.34;77.65
68801;SHT31;55784;50.734;7.086;2022-10-16T16:37:10;19.32;77.83
68801;SHT31;55784;50.734;7.086;2022-10-16T16:39:35;19.27;78.19
68801;SHT31;55784;50.734;7.086;2022-10-16T16:42:00;19.24;78.49
68801;SHT31;55784;50.734;7.086;2022-10-16T16:44:28;19.19;78.80
68801;SHT31;55784;50.734;7.086;2022-10-16T16:46:53;19.16;79.05
68801;SHT31;55784;50.734;7.086;2022-10-16T16:49:19;19.10;79.22
68801;SHT31;55784;50.734;7.086;2022-10-16T16:51:45;19.09;79.29
68801;SHT31;55784;50.734;7.086;2022-10-16T16:54:11;19.06;79.68
68801;SHT31;55784;50.734;7.086;2022-10-16T16:56:38;19.02;79.93
68801;SHT31;55784;50.734;7.086;2022-10-16T16:59:04;19.00;80.13
68801;SHT31;55784;50.734;7.086;2022-10-16T17:01:29;19.00;80.19
68801;SHT31;55784;50.734;7.086;2022-10-16T17:03:59;18.99;80.50
68801;SHT31;55784;50.734;7.086;2022-10-16T17:06:27;18.95;81.28
68801;SHT31;55784;50.734;7.086;2022-10-16T17:08:54;18.90;81.30
68801;SHT31;55784;50.734;7.086;2022-10-16T17:11:25;18.93;81.67
68801;SHT31;55784;50.734;7.086;2022-10-16T17:13:52;18.87;81.86
68801;SHT31;55784;50.734;7.086;2022-10-16T17:16:19;18.86;81.85
68801;SHT31;55784;50.734;7.086;2022-10-16T17:18:45;18.83;81.64
68801;SHT31;55784;50.734;7.086;2022-10-16T17:21:10;18.82;81.57
68801;SHT31;55784;50.734;7.086;2022-10-16T17:23:39;18.75;81.71
68801;SHT31;55784;50.734;7.086;2022-10-16T17:26:15;18.70;81.57
68801;SHT31;55784;50.734;7.086;2022-10-16T17:28:41;18.72;81.44
68801;SHT31;55784;50.734;7.086;2022-10-16T17:31:16;18.68;81.37
68801;SHT31;55784;50.734;7.086;2022-10-16T17:33:42;18.62;81.39
68801;SHT31;55784;50.734;7.086;2022-10-16T17:36:08;18.62;81.48
68801;SHT31;55784;50.734;7.086;2022-10-16T17:38:34;18.63;81.62
68801;SHT31;55784;50.734;7.086;2022-10-16T17:43:38;18.52;81.73
68801;SHT31;55784;50.734;7.086;2022-10-16T17:46:04;18.46;81.96
68801;SHT31;55784;50.734;7.086;2022-10-16T17:48:29;18.36;82.26
68801;SHT31;55784;50.734;7.086;2022-10-16T17:50:58;18.26;82.58
68801;SHT31;55784;50.734;7.086;2022-10-16T17:53:36;18.22;83.02
68801;SHT31;55784;50.734;7.086;2022-10-16T17:56:04;18.19;82.94
68801;SHT31;55784;50.734;7.086;2022-10-16T17:58:33;18.18;83.12
68801;SHT31;55784;50.734;7.086;2022-10-16T18:01:04;18.15;83.13
68801;SHT31;55784;50.734;7.086;2022-10-16T18:03:35;18.14;83.28
68801;SHT31;55784;50.734;7.086;2022-10-16T18:06:00;18.19;83.15
68801;SHT31;55784;50.734;7.086;2022-10-16T18:08:26;18.18;83.15
68801;SHT31;55784;50.734;7.086;2022-10-16T18:10:51;18.18;83.16
68801;SHT31;55784;50.734;7.086;2022-10-16T18:13:17;18.19;83.20
68801;SHT31;55784;50.734;7.086;2022-10-16T18:15:43;18.16;83.23
68801;SHT31;55784;50.734;7.086;2022-10-16T18:18:08;18.16;83.28
68801;SHT31;55784;50.734;7.086;2022-10-16T18:20:33;18.19;83.28
68801;SHT31;55784;50.734;7.086;2022-10-16T18:22:59;18.19;83.24
68801;SHT31;55784;50.734;7.086;2022-10-16T18:25:54;18.14;83.33
68801;SHT31;55784;50.734;7.086;2022-10-16T18:28:43;18.15;83.34
68801;SHT31;55784;50.734;7.086;2022-10-16T18:31:14;18.09;83.48
68801;SHT31;55784;50.734;7.086;2022-10-16T18:33:41;18.02;83.83
68801;SHT31;55784;50.734;7.086;2022-10-16T18:36:12;17.94;84.13
68801;SHT31;55784;50.734;7.086;2022-10-16T18:38:37;17.90;84.45
68801;SHT31;55784;50.734;7.086;2022-10-16T18:41:03;17.83;84.71
68801;SHT31;55784;50.734;7.086;2022-10-16T18:43:36;17.81;84.74
68801;SHT31;55784;50.734;7.086;2022-10-16T18:46:11;17.78;84.93
68801;SHT31;55784;50.734;7.086;2022-10-16T18:48:37;17.75;85.02
68801;SHT31;55784;50.734;7.086;2022-10-16T18:53:40;17.75;85.19
68801;SHT31;55784;50.734;7.086;2022-10-16T18:56:06;17.78;85.09
68801;SHT31;55784;50.734;7.086;2022-10-16T18:58:33;17.78;85.10
68801;SHT31;55784;50.734;7.086;2022-10-16T19:01:07;17.77;85.15
68801;SHT31;55784;50.734;7.086;2022-10-16T19:03:33;17.74;85.30
68801;SHT31;55784;50.734;7.086;2022-10-16T19:06:03;17.74;85.32
68801;SHT31;55784;50.734;7.086;2022-10-16T19:08:28;17.73;85.36
68801;SHT31;55784;50.734;7.086;2022-10-16T19:11:04;17.75;85.49
68801;SHT31;55784;50.734;7.086;2022-10-16T19:13:29;17.70;85.89
68801;SHT31;55784;50.734;7.086;2022-10-16T19:15:55;17.69;86.13
68801;SHT31;55784;50.734;7.086;2022-10-16T19:18:20;17.66;86.25
68801;SHT31;55784;50.734;7.086;2022-10-16T19:20:46;17.63;86.57
68801;SHT31;55784;50.734;7.086;2022-10-16T19:23:11;17.59;86.74
68801;SHT31;55784;50.734;7.086;2022-10-16T19:25:36;17.54;87.03
68801;SHT31;55784;50.734;7.086;2022-10-16T19:28:02;17.59;87.33
68801;SHT31;55784;50.734;7.086;2022-10-16T19:30:35;17.53;87.60
68801;SHT31;55784;50.734;7.086;2022-10-16T19:33:00;17.51;87.88
68801;SHT31;55784;50.734;7.086;2022-10-16T19:35:26;17.46;88.08
68801;SHT31;55784;50.734;7.086;2022-10-16T19:37:51;17.37;88.31
68801;SHT31;55784;50.734;7.086;2022-10-16T19:40:17;17.32;88.74
68801;SHT31;55784;50.734;7.086;2022-10-16T19:42:46;17.26;89.00
68801;SHT31;55784;50.734;7.086;2022-10-16T19:45:11;17.20;89.31
68801;SHT31;55784;50.734;7.086;2022-10-16T19:47:37;17.10;89.61
68801;SHT31;55784;50.734;7.086;2022-10-16T19:50:03;17.06;90.24
68801;SHT31;55784;50.734;7.086;2022-10-16T19:52:30;17.01;90.45
68801;SHT31;55784;50.734;7.086;2022-10-16T19:54:56;16.93;90.63
68801;SHT31;55784;50.734;7.086;2022-10-16T19:57:22;16.91;91.48
68801;SHT31;55784;50.734;7.086;2022-10-16T19:59:52;16.86;91.27
68801;SHT31;55784;50.734;7.086;2022-10-16T20:02:24;16.85;91.53
68801;SHT31;55784;50.734;7.086;2022-10-16T20:04:49;16.82;91.60
68801;SHT31;55784;50.734;7.086;2022-10-16T20:07:15;16.83;91.84